PWSweather.com
Personal Weather Stations
Station Observations
ABCSTATION
Croke Park City Centre Dublin, DublinIE Dublin

Croke Park City Centre DublinDublinIE Dublin

Lat: 53.3585133, Lon: -6.2522999000000254

Elevation: 30

Station Type: Weather Station Wireless Professional WS2083

http://www.abcweatherstation.com

Latest ConditionsUpdated 7:00:00 AM GMT Wednesday, Jun 26, 2019
Currently Today's Max Today's Min Today's Average
Temperature 59.4°F15.2°C 59.5°F15.3°C 55.9°F13.3°C 57.4°F14.1°C
Dew Point 54.9°F12.7°C 55.9°F13.3°C 54.0°F12.2°C 54.9°F12.7°C
Winds 2.2 mph NW3.5 kmh NW 3.1 mph -5.0 kmh - - 0.7 mph 1.1 kmh
Wind Gusts 6.9 mph11.1 kmh 6.9 mph11.1 kmh - -
Humidity 85% 94% 85% 91%
Pressure 30.43 in1030.5 mb 30.43 in1030.5 mb 30.35 in1027.8 mb -
Hour Temp Dew Point Humidity Winds Wind Gusts Pressure Precip Precip Rate Daily Precip Total
07:00 AM 59.4°F15.2°C 54.9°F12.7°C 85% 2.2 mph NW3.5 kmh NW 6.9 mph11.1 kmh 30.43 in1030.5 mb 0.00 in0.0 mm 0.00 in0.0 mm 0.00 in0.0 mm
06:55 AM 59.4°F15.2°C 54.9°F12.7°C 85% 1.6 mph NW2.6 kmh NW 5.4 mph8.7 kmh 30.43 in1030.5 mb 0.00 in0.0 mm 0.00 in0.0 mm 0.00 in0.0 mm
06:50 AM 59.4°F15.2°C 54.9°F12.7°C 85% 0.7 mph SW1.1 kmh SW 5.4 mph8.7 kmh 30.43 in1030.5 mb 0.00 in0.0 mm 0.00 in0.0 mm 0.00 in0.0 mm
06:45 AM 59.4°F15.2°C 55.2°F12.9°C 86% 2.2 mph SW3.5 kmh SW 3.8 mph6.1 kmh 30.43 in1030.5 mb 0.00 in0.0 mm 0.00 in0.0 mm 0.00 in0.0 mm
06:40 AM 59.5°F15.3°C 55.7°F13.2°C 87% 1.6 mph W2.6 kmh W 5.4 mph8.7 kmh 30.42 in1030.1 mb 0.00 in0.0 mm 0.00 in0.0 mm 0.00 in0.0 mm
06:35 AM 59.5°F15.3°C 55.7°F13.2°C 87% Calm Calm 5.4 mph8.7 kmh 30.42 in1030.1 mb 0.00 in0.0 mm 0.00 in0.0 mm 0.00 in0.0 mm
06:30 AM 59.0°F15.0°C 55.1°F12.8°C 87% 0.7 mph WSW1.1 kmh WSW 4.5 mph7.2 kmh 30.43 in1030.5 mb 0.00 in0.0 mm 0.00 in0.0 mm 0.00 in0.0 mm
06:25 AM 59.0°F15.0°C 55.1°F12.8°C 87% 1.6 mph S2.6 kmh S 4.5 mph7.2 kmh 30.43 in1030.5 mb 0.00 in0.0 mm 0.00 in0.0 mm 0.00 in0.0 mm
06:20 AM 58.8°F14.9°C 55.6°F13.1°C 89% 0.7 mph SSE1.1 kmh SSE 3.8 mph6.1 kmh 30.43 in1030.5 mb 0.00 in0.0 mm 0.00 in0.0 mm 0.00 in0.0 mm
06:15 AM 58.8°F14.9°C 55.6°F13.1°C 89% 1.6 mph SE2.6 kmh SE 3.8 mph6.1 kmh 30.43 in1030.5 mb 0.00 in0.0 mm 0.00 in0.0 mm 0.00 in0.0 mm
06:10 AM 58.8°F14.9°C 55.6°F13.1°C 89% 1.6 mph SSE2.6 kmh SSE 3.8 mph6.1 kmh 30.43 in1030.5 mb 0.00 in0.0 mm 0.00 in0.0 mm 0.00 in0.0 mm
06:05 AM 58.5°F14.7°C 55.2°F12.9°C 89% 0.7 mph SW1.1 kmh SW 3.1 mph5.0 kmh 30.43 in1030.5 mb 0.00 in0.0 mm 0.00 in0.0 mm 0.00 in0.0 mm
06:00 AM 58.5°F14.7°C 55.2°F12.9°C 89% Calm Calm 3.8 mph6.1 kmh 30.42 in1030.1 mb 0.00 in0.0 mm 0.00 in0.0 mm 0.00 in0.0 mm
05:55 AM 58.5°F14.7°C 55.5°F13.1°C 90% 0.7 mph NW1.1 kmh NW 4.5 mph7.2 kmh 30.42 in1030.1 mb 0.00 in0.0 mm 0.00 in0.0 mm 0.00 in0.0 mm
05:50 AM 58.5°F14.7°C 55.5°F13.1°C 90% 0.7 mph S1.1 kmh S 6.9 mph11.1 kmh 30.42 in1030.1 mb 0.00 in0.0 mm 0.00 in0.0 mm 0.00 in0.0 mm
05:45 AM 58.5°F14.7°C 55.5°F13.1°C 90% 1.6 mph SSE2.6 kmh SSE 6.9 mph11.1 kmh 30.41 in1029.8 mb 0.00 in0.0 mm 0.00 in0.0 mm 0.00 in0.0 mm
05:40 AM 58.5°F14.7°C 55.5°F13.1°C 90% Calm Calm 4.5 mph7.2 kmh 30.42 in1030.1 mb 0.00 in0.0 mm 0.00 in0.0 mm 0.00 in0.0 mm
05:35 AM 58.3°F14.6°C 55.4°F13.0°C 90% 0.7 mph SW1.1 kmh SW 6.0 mph9.7 kmh 30.41 in1029.8 mb 0.00 in0.0 mm 0.00 in0.0 mm 0.00 in0.0 mm
05:30 AM 58.3°F14.6°C 55.4°F13.0°C 90% 0.7 mph SW1.1 kmh SW 6.0 mph9.7 kmh 30.41 in1029.8 mb 0.00 in0.0 mm 0.00 in0.0 mm 0.00 in0.0 mm
05:25 AM 58.5°F14.7°C 55.9°F13.3°C 91% 2.2 mph S3.5 kmh S 5.4 mph8.7 kmh 30.41 in1029.8 mb 0.00 in0.0 mm 0.00 in0.0 mm 0.00 in0.0 mm
05:20 AM 58.5°F14.7°C 55.9°F13.3°C 91% 1.6 mph SSE2.6 kmh SSE 6.0 mph9.7 kmh 30.41 in1029.8 mb 0.00 in0.0 mm 0.00 in0.0 mm 0.00 in0.0 mm
05:15 AM 58.3°F14.6°C 55.7°F13.2°C 91% 0.7 mph SE1.1 kmh SE 6.0 mph9.7 kmh 30.41 in1029.8 mb 0.00 in0.0 mm 0.00 in0.0 mm 0.00 in0.0 mm
05:10 AM 58.1°F14.5°C 55.5°F13.1°C 91% 0.7 mph SE1.1 kmh SE 6.0 mph9.7 kmh 30.40 in1029.5 mb 0.00 in0.0 mm 0.00 in0.0 mm 0.00 in0.0 mm
05:05 AM 57.9°F14.4°C 55.3°F12.9°C 91% 1.6 mph S2.6 kmh S 6.0 mph9.7 kmh 30.40 in1029.5 mb 0.00 in0.0 mm 0.00 in0.0 mm 0.00 in0.0 mm
05:00 AM 57.9°F14.4°C 55.3°F12.9°C 91% 3.1 mph WSW5.0 kmh WSW 6.0 mph9.7 kmh 30.39 in1029.1 mb 0.00 in0.0 mm 0.00 in0.0 mm 0.00 in0.0 mm
04:55 AM 57.9°F14.4°C 55.3°F12.9°C 91% 0.7 mph SSW1.1 kmh SSW 3.8 mph6.1 kmh 30.39 in1029.1 mb 0.00 in0.0 mm 0.00 in0.0 mm 0.00 in0.0 mm
04:50 AM 57.9°F14.4°C 55.3°F12.9°C 91% 0.7 mph SSE1.1 kmh SSE 3.8 mph6.1 kmh 30.40 in1029.5 mb 0.00 in0.0 mm 0.00 in0.0 mm 0.00 in0.0 mm
04:45 AM 57.9°F14.4°C 55.3°F12.9°C 91% 1.6 mph S2.6 kmh S 4.5 mph7.2 kmh 30.39 in1029.1 mb 0.00 in0.0 mm 0.00 in0.0 mm 0.00 in0.0 mm
04:40 AM 57.9°F14.4°C 55.3°F12.9°C 91% 0.7 mph SSE1.1 kmh SSE 4.5 mph7.2 kmh 30.39 in1029.1 mb 0.00 in0.0 mm 0.00 in0.0 mm 0.00 in0.0 mm
04:35 AM 58.1°F14.5°C 55.5°F13.1°C 91% 0.7 mph SE1.1 kmh SE 3.8 mph6.1 kmh 30.38 in1028.8 mb 0.00 in0.0 mm 0.00 in0.0 mm 0.00 in0.0 mm
04:30 AM 57.9°F14.4°C 55.6°F13.1°C 92% 2.2 mph SE3.5 kmh SE 4.5 mph7.2 kmh 30.38 in1028.8 mb 0.00 in0.0 mm 0.00 in0.0 mm 0.00 in0.0 mm
04:25 AM 57.9°F14.4°C 55.6°F13.1°C 92% 0.7 mph NE1.1 kmh NE 4.5 mph7.2 kmh 30.39 in1029.1 mb 0.00 in0.0 mm 0.00 in0.0 mm 0.00 in0.0 mm
04:20 AM 57.7°F14.3°C 55.4°F13.0°C 92% 1.6 mph N2.6 kmh N 4.5 mph7.2 kmh 30.38 in1028.8 mb 0.00 in0.0 mm 0.00 in0.0 mm 0.00 in0.0 mm
04:15 AM 57.7°F14.3°C 55.4°F13.0°C 92% 1.6 mph S2.6 kmh S 4.5 mph7.2 kmh 30.39 in1029.1 mb 0.00 in0.0 mm 0.00 in0.0 mm 0.00 in0.0 mm
04:10 AM 57.6°F14.2°C 55.3°F12.9°C 92% 2.2 mph SE3.5 kmh SE 3.8 mph6.1 kmh 30.38 in1028.8 mb 0.00 in0.0 mm 0.00 in0.0 mm 0.00 in0.0 mm
04:05 AM 57.4°F14.1°C 55.1°F12.8°C 92% 0.7 mph NE1.1 kmh NE 3.1 mph5.0 kmh 30.38 in1028.8 mb 0.00 in0.0 mm 0.00 in0.0 mm 0.00 in0.0 mm
04:00 AM 57.6°F14.2°C 55.3°F12.9°C 92% 0.7 mph SE1.1 kmh SE 2.2 mph3.5 kmh 30.38 in1028.8 mb 0.00 in0.0 mm 0.00 in0.0 mm 0.00 in0.0 mm
03:55 AM 57.6°F14.2°C 55.3°F12.9°C 92% 1.6 mph SSE2.6 kmh SSE 3.1 mph5.0 kmh 30.39 in1029.1 mb 0.00 in0.0 mm 0.00 in0.0 mm 0.00 in0.0 mm
03:50 AM 57.6°F14.2°C 55.6°F13.1°C 93% Calm Calm 3.1 mph5.0 kmh 30.38 in1028.8 mb 0.00 in0.0 mm 0.00 in0.0 mm 0.00 in0.0 mm
03:45 AM 57.4°F14.1°C 55.4°F13.0°C 93% 1.6 mph SSE2.6 kmh SSE 3.1 mph5.0 kmh 30.38 in1028.8 mb 0.00 in0.0 mm 0.00 in0.0 mm 0.00 in0.0 mm
03:40 AM 57.2°F14.0°C 55.2°F12.9°C 93% 0.7 mph E1.1 kmh E 3.8 mph6.1 kmh 30.38 in1028.8 mb 0.00 in0.0 mm 0.00 in0.0 mm 0.00 in0.0 mm
03:35 AM 57.0°F13.9°C 55.3°F12.9°C 94% 0.7 mph NW1.1 kmh NW 3.8 mph6.1 kmh 30.38 in1028.8 mb 0.00 in0.0 mm 0.00 in0.0 mm 0.00 in0.0 mm
03:30 AM 56.7°F13.7°C 55.0°F12.8°C 94% 1.6 mph WSW2.6 kmh WSW 3.1 mph5.0 kmh 30.38 in1028.8 mb 0.00 in0.0 mm 0.00 in0.0 mm 0.00 in0.0 mm
03:25 AM 56.5°F13.6°C 54.8°F12.7°C 94% 0.7 mph E1.1 kmh E 3.1 mph5.0 kmh 30.38 in1028.8 mb 0.00 in0.0 mm 0.00 in0.0 mm 0.00 in0.0 mm
03:20 AM 56.7°F13.7°C 55.0°F12.8°C 94% 0.7 mph SE1.1 kmh SE 2.2 mph3.5 kmh 30.37 in1028.4 mb 0.00 in0.0 mm 0.00 in0.0 mm 0.00 in0.0 mm
03:15 AM 56.8°F13.8°C 55.1°F12.8°C 94% 0.7 mph SE1.1 kmh SE 2.2 mph3.5 kmh 30.37 in1028.4 mb 0.00 in0.0 mm 0.00 in0.0 mm 0.00 in0.0 mm
03:10 AM 56.8°F13.8°C 55.1°F12.8°C 94% Calm Calm 2.2 mph3.5 kmh 30.37 in1028.4 mb 0.00 in0.0 mm 0.00 in0.0 mm 0.00 in0.0 mm
03:05 AM 56.7°F13.7°C 55.0°F12.8°C 94% 0.7 mph SSE1.1 kmh SSE 3.1 mph5.0 kmh 30.37 in1028.4 mb 0.00 in0.0 mm 0.00 in0.0 mm 0.00 in0.0 mm
03:00 AM 56.7°F13.7°C 55.0°F12.8°C 94% 1.6 mph S2.6 kmh S 3.1 mph5.0 kmh 30.37 in1028.4 mb 0.00 in0.0 mm 0.00 in0.0 mm 0.00 in0.0 mm
02:55 AM 56.5°F13.6°C 54.8°F12.7°C 94% 1.6 mph SSE2.6 kmh SSE 3.1 mph5.0 kmh 30.38 in1028.8 mb 0.00 in0.0 mm 0.00 in0.0 mm 0.00 in0.0 mm
02:50 AM 56.5°F13.6°C 54.8°F12.7°C 94% Calm Calm 4.5 mph7.2 kmh 30.38 in1028.8 mb 0.00 in0.0 mm 0.00 in0.0 mm 0.00 in0.0 mm
02:45 AM 56.5°F13.6°C 54.8°F12.7°C 94% 0.7 mph SSE1.1 kmh SSE 4.5 mph7.2 kmh 30.38 in1028.8 mb 0.00 in0.0 mm 0.00 in0.0 mm 0.00 in0.0 mm
02:40 AM 56.5°F13.6°C 54.8°F12.7°C 94% Calm Calm 1.6 mph2.6 kmh 30.38 in1028.8 mb 0.00 in0.0 mm 0.00 in0.0 mm 0.00 in0.0 mm
02:35 AM 56.1°F13.4°C 54.4°F12.4°C 94% Calm Calm 4.5 mph7.2 kmh 30.38 in1028.8 mb 0.00 in0.0 mm 0.00 in0.0 mm 0.00 in0.0 mm
02:30 AM 56.1°F13.4°C 54.1°F12.3°C 93% 1.6 mph SSE2.6 kmh SSE 4.5 mph7.2 kmh 30.38 in1028.8 mb 0.00 in0.0 mm 0.00 in0.0 mm 0.00 in0.0 mm
02:25 AM 56.1°F13.4°C 54.1°F12.3°C 93% Calm Calm 2.2 mph3.5 kmh 30.38 in1028.8 mb 0.00 in0.0 mm 0.00 in0.0 mm 0.00 in0.0 mm
02:20 AM 56.1°F13.4°C 54.1°F12.3°C 93% Calm Calm 1.6 mph2.6 kmh 30.37 in1028.4 mb 0.00 in0.0 mm 0.00 in0.0 mm 0.00 in0.0 mm
02:15 AM 56.1°F13.4°C 54.1°F12.3°C 93% Calm Calm 3.1 mph5.0 kmh 30.37 in1028.4 mb 0.00 in0.0 mm 0.00 in0.0 mm 0.00 in0.0 mm
02:10 AM 56.3°F13.5°C 54.3°F12.4°C 93% Calm Calm 3.1 mph5.0 kmh 30.37 in1028.4 mb 0.00 in0.0 mm 0.00 in0.0 mm 0.00 in0.0 mm
02:05 AM 56.1°F13.4°C 54.1°F12.3°C 93% Calm Calm 2.2 mph3.5 kmh 30.37 in1028.4 mb 0.00 in0.0 mm 0.00 in0.0 mm 0.00 in0.0 mm
02:00 AM 56.3°F13.5°C 54.3°F12.4°C 93% Calm Calm 0.7 mph1.1 kmh 30.36 in1028.1 mb 0.00 in0.0 mm 0.00 in0.0 mm 0.00 in0.0 mm
01:55 AM 55.9°F13.3°C 54.0°F12.2°C 93% Calm Calm 0.7 mph1.1 kmh 30.36 in1028.1 mb 0.00 in0.0 mm 0.00 in0.0 mm 0.00 in0.0 mm
01:50 AM 55.9°F13.3°C 54.0°F12.2°C 93% Calm Calm 1.6 mph2.6 kmh 30.36 in1028.1 mb 0.00 in0.0 mm 0.00 in0.0 mm 0.00 in0.0 mm
01:45 AM 56.3°F13.5°C 54.3°F12.4°C 93% Calm Calm 2.2 mph3.5 kmh 30.36 in1028.1 mb 0.00 in0.0 mm 0.00 in0.0 mm 0.00 in0.0 mm
01:40 AM 56.3°F13.5°C 54.3°F12.4°C 93% 0.7 mph SE1.1 kmh SE 2.2 mph3.5 kmh 30.35 in1027.8 mb 0.00 in0.0 mm 0.00 in0.0 mm 0.00 in0.0 mm
01:35 AM 56.3°F13.5°C 54.3°F12.4°C 93% 0.7 mph SE1.1 kmh SE 2.2 mph3.5 kmh 30.36 in1028.1 mb 0.00 in0.0 mm 0.00 in0.0 mm 0.00 in0.0 mm
01:30 AM 56.3°F13.5°C 54.3°F12.4°C 93% Calm Calm 1.6 mph2.6 kmh 30.35 in1027.8 mb 0.00 in0.0 mm 0.00 in0.0 mm 0.00 in0.0 mm
01:25 AM 56.5°F13.6°C 54.5°F12.5°C 93% Calm Calm 2.2 mph3.5 kmh 30.35 in1027.8 mb 0.00 in0.0 mm 0.00 in0.0 mm 0.00 in0.0 mm
01:20 AM 56.3°F13.5°C 54.0°F12.2°C 92% Calm Calm 2.2 mph3.5 kmh 30.36 in1028.1 mb 0.00 in0.0 mm 0.00 in0.0 mm 0.00 in0.0 mm
01:15 AM 56.3°F13.5°C 54.0°F12.2°C 92% Calm Calm 1.6 mph2.6 kmh 30.36 in1028.1 mb 0.00 in0.0 mm 0.00 in0.0 mm 0.00 in0.0 mm
01:10 AM 56.3°F13.5°C 54.0°F12.2°C 92% 0.7 mph ESE1.1 kmh ESE 2.2 mph3.5 kmh 30.35 in1027.8 mb 0.00 in0.0 mm 0.00 in0.0 mm 0.00 in0.0 mm
01:05 AM 56.5°F13.6°C 54.2°F12.3°C 92% Calm Calm 2.2 mph3.5 kmh 30.36 in1028.1 mb 0.00 in0.0 mm 0.00 in0.0 mm 0.00 in0.0 mm
01:00 AM 56.3°F13.5°C 54.0°F12.2°C 92% Calm Calm 2.2 mph3.5 kmh 30.36 in1028.1 mb 0.00 in0.0 mm 0.00 in0.0 mm 0.00 in0.0 mm
12:55 AM 56.5°F13.6°C 54.2°F12.3°C 92% Calm Calm 3.8 mph6.1 kmh 30.36 in1028.1 mb 0.00 in0.0 mm 0.00 in0.0 mm 0.00 in0.0 mm
12:50 AM 56.7°F13.7°C 54.4°F12.4°C 92% Calm Calm 3.8 mph6.1 kmh 30.36 in1028.1 mb 0.00 in0.0 mm 0.00 in0.0 mm 0.00 in0.0 mm
12:45 AM 56.8°F13.8°C 54.6°F12.6°C 92% 0.7 mph ESE1.1 kmh ESE 2.2 mph3.5 kmh 30.36 in1028.1 mb 0.00 in0.0 mm 0.00 in0.0 mm 0.00 in0.0 mm
12:40 AM 57.0°F13.9°C 54.7°F12.6°C 92% Calm Calm 1.6 mph2.6 kmh 30.36 in1028.1 mb 0.00 in0.0 mm 0.00 in0.0 mm 0.00 in0.0 mm
12:35 AM 57.0°F13.9°C 54.7°F12.6°C 92% Calm Calm 1.6 mph2.6 kmh 30.36 in1028.1 mb 0.00 in0.0 mm 0.00 in0.0 mm 0.00 in0.0 mm
12:30 AM 56.8°F13.8°C 54.6°F12.6°C 92% Calm Calm 1.6 mph2.6 kmh 30.36 in1028.1 mb 0.00 in0.0 mm 0.00 in0.0 mm 0.00 in0.0 mm
12:25 AM 57.0°F13.9°C 54.4°F12.4°C 91% Calm Calm 1.6 mph2.6 kmh 30.36 in1028.1 mb 0.00 in0.0 mm 0.00 in0.0 mm 0.00 in0.0 mm
12:20 AM 56.8°F13.8°C 54.3°F12.4°C 91% Calm Calm 1.6 mph2.6 kmh 30.36 in1028.1 mb 0.00 in0.0 mm 0.00 in0.0 mm 0.00 in0.0 mm
12:15 AM 56.8°F13.8°C 54.3°F12.4°C 91% Calm Calm 1.6 mph2.6 kmh 30.36 in1028.1 mb 0.00 in0.0 mm 0.00 in0.0 mm 0.00 in0.0 mm
12:10 AM 57.0°F13.9°C 54.4°F12.4°C 91% Calm Calm 2.2 mph3.5 kmh 30.36 in1028.1 mb 0.00 in0.0 mm 0.00 in0.0 mm 0.00 in0.0 mm
12:05 AM 57.2°F14.0°C 54.0°F12.2°C 89% Calm Calm 2.2 mph3.5 kmh 30.36 in1028.1 mb 0.00 in0.0 mm 0.00 in0.0 mm 0.00 in0.0 mm
12:00 AM 57.2°F14.0°C 54.0°F12.2°C 89% Calm Calm 2.2 mph3.5 kmh 30.36 in1028.1 mb 0.00 in0.0 mm 0.00 in0.0 mm 0.00 in0.0 mm